Olympiada — UBJM9 — position and weather

sailwx.info

Track history (hours):
 
Tides and Currents Weather Stations Pressure Air Temp Water Temp Dewpoint Dewpoint Depression Visibility Wind Speed Wind Dir Waves Ship Positions

Olympiada

Last reported at 2017-Nov-23 10:57 UTC. Time now 2017-Nov-23 11:15 UTC.
Position N 45°22' E 036°41'.

Length 93 m; draft 3.2 m.

Type: Dredging. MMSI: 273371120.

Date/timePositionNaut miles runAvg speedWind from/ knotsBaromVisibWave heightAir tempDewpointWater temp
2017-Nov-23 10:57N 45°22' E 036°41'0 0.0
2017-Nov-23 10:30N 45°22' E 036°41'0 0.0
2017-Nov-23 10:00N 45°22' E 036°41'0 0.0
2017-Nov-23 09:29N 45°22' E 036°41'0 0.0
2017-Nov-23 08:56N 45°22' E 036°41'0 0.0
2017-Nov-23 08:25N 45°22' E 036°41'0 0.1
2017-Nov-23 08:00N 45°22' E 036°41'0 0.0
2017-Nov-23 07:28N 45°22' E 036°41'0 0.1
2017-Nov-23 06:56N 45°22' E 036°41'0 0.1
2017-Nov-23 06:24N 45°22' E 036°41'0 0.9
2017-Nov-23 06:00N 45°22' E 036°41'2 2.2
2017-Nov-23 05:07N 45°22' E 036°38'1 6.0
2017-Nov-23 05:01N 45°22' E 036°39'0 0.2
2017-Nov-23 04:30N 45°22' E 036°39'2 3.4
2017-Nov-23 04:00N 45°20' E 036°40'0 0.0
2017-Nov-23 03:30N 45°20' E 036°40'0 0.0
2017-Nov-23 03:00N 45°20' E 036°40'0 0.0
2017-Nov-23 02:30N 45°20' E 036°40'1 1.8
2017-Nov-23 02:00N 45°21' E 036°40'1 1.3
2017-Nov-23 01:31N 45°22' E 036°39'1 0.3
2017-Nov-22 23:08N 45°22' E 036°38'0 2.4
2017-Nov-22 23:00N 45°22' E 036°39'2 3.5
2017-Nov-22 22:30N 45°20' E 036°40'0 0.0
2017-Nov-22 22:00N 45°20' E 036°40'1 1.9
2017-Nov-22 21:30N 45°21' E 036°39'1 0.9
2017-Nov-22 20:09N 45°22' E 036°38'1 5.4
2017-Nov-22 20:00N 45°22' E 036°39'2 3.1
2017-Nov-22 19:30N 45°20' E 036°40'  
2017-Nov-19 23:42N 45°22' E 036°38'0 1.6
2017-Nov-19 23:30N 45°21' E 036°38'0 0.3
2017-Nov-19 23:00N 45°21' E 036°39'0 0.3
2017-Nov-19 21:41N 45°22' E 036°38'1 2.7
2017-Nov-19 21:30N 45°21' E 036°39'1 2.9
2017-Nov-19 20:59N 45°20' E 036°40'0 0.0
2017-Nov-19 20:30N 45°20' E 036°40'1 1.9
2017-Nov-19 20:00N 45°21' E 036°39'1 0.9
2017-Nov-19 18:37N 45°22' E 036°38'0 2.8
2017-Nov-19 18:30N 45°22' E 036°38'2 3.5
2017-Nov-19 17:59N 45°20' E 036°40'0 0.0
2017-Nov-19 17:29N 45°20' E 036°40'1 2.6
2017-Nov-19 17:00N 45°21' E 036°39'1 0.5
2017-Nov-19 15:33N 45°22' E 036°38'0 3.9
2017-Nov-19 15:29N 45°22' E 036°39'2 3.7
2017-Nov-19 15:01N 45°20' E 036°40'0 0.0
2017-Nov-19 14:31N 45°20' E 036°40'1 2.1
2017-Nov-19 13:59N 45°21' E 036°39'1 0.2
2017-Nov-19 08:10N 45°22' E 036°38'0 2.6
2017-Nov-19 08:00N 45°22' E 036°39'0 0.5
2017-Nov-19 07:30N 45°21' E 036°39'2 3.0
2017-Nov-19 06:59N 45°20' E 036°40'0 0.0
2017-Nov-19 06:30N 45°20' E 036°40'0 0.0
2017-Nov-19 05:59N 45°20' E 036°40'0 0.0
2017-Nov-19 05:30N 45°20' E 036°40'1 2.8
2017-Nov-19 05:00N 45°22' E 036°39'0 0.4
2017-Nov-19 04:30N 45°22' E 036°39'1 0.3
2017-Nov-19 02:25N 45°22' E 036°38'2 4.9
2017-Nov-19 02:00N 45°20' E 036°40'0 0.0
2017-Nov-19 01:30N 45°20' E 036°40'0 0.0
2017-Nov-19 00:59N 45°20' E 036°40'0 0.0
2017-Nov-19 00:30N 45°20' E 036°40'0 0.0
2017-Nov-19 00:00N 45°20' E 036°40'0 0.0
2017-Nov-18 23:30N 45°20' E 036°40'2 1.5
2017-Nov-18 22:10N 45°22' E 036°38'1 4.9
2017-Nov-18 22:00N 45°21' E 036°39'1 2.5
2017-Nov-18 21:30N 45°20' E 036°40'0 0.0
2017-Nov-18 21:00N 45°20' E 036°40'0 0.0
2017-Nov-18 20:29N 45°20' E 036°40'2 1.4
2017-Nov-18 19:00N 45°22' E 036°38'2 4.3
2017-Nov-18 18:31N 45°20' E 036°40'0 0.0
2017-Nov-18 17:59N 45°20' E 036°40'0 0.0
2017-Nov-18 17:30N 45°20' E 036°40'2 1.2
2017-Nov-18 15:51N 45°22' E 036°38'2 5.6
2017-Nov-18 15:30N 45°20' E 036°40'0 0.0
2017-Nov-18 15:00N 45°20' E 036°40'0 0.0
2017-Nov-18 14:29N 45°20' E 036°40'0 0.0
2017-Nov-18 14:00N 45°20' E 036°40'0 0.0
2017-Nov-18 13:30N 45°20' E 036°40'0 0.0
2017-Nov-18 13:00N 45°20' E 036°40'0 0.0
2017-Nov-18 12:30N 45°20' E 036°40'0 0.0
2017-Nov-18 12:00N 45°20' E 036°40'0 0.0
2017-Nov-18 11:30N 45°20' E 036°40'2 0.9
2017-Nov-18 09:16N 45°22' E 036°38'2 6.7
2017-Nov-18 08:59N 45°20' E 036°40'0 0.2
2017-Nov-18 08:30N 45°20' E 036°40'0 0.0
2017-Nov-18 08:00N 45°20' E 036°40'0 0.0
2017-Nov-18 07:30N 45°20' E 036°40'0 0.0
2017-Nov-18 07:00N 45°20' E 036°40'0 0.0
2017-Nov-18 06:30N 45°20' E 036°40'0 0.0
2017-Nov-18 06:00N 45°20' E 036°40'0 0.0
2017-Nov-18 05:30N 45°20' E 036°40'2 3.1
2017-Nov-18 05:00N 45°21' E 036°38'0 0.0
2017-Nov-18 04:30N 45°21' E 036°38'0 0.2
2017-Nov-18 02:04N 45°22' E 036°38'0 4.8
2017-Nov-18 02:00N 45°22' E 036°39'0 0.0
2017-Nov-18 01:30N 45°22' E 036°39'2 3.5
2017-Nov-18 01:00N 45°20' E 036°40'0 0.0
2017-Nov-18 00:30N 45°20' E 036°40'0 0.0
2017-Nov-18 00:00N 45°20' E 036°40'1 2.1
2017-Nov-17 23:30N 45°21' E 036°40'1 0.8
2017-Nov-17 22:03N 45°22' E 036°38'0 6.4
2017-Nov-17 21:59N 45°22' E 036°39'2 3.8
2017-Nov-17 21:30N 45°20' E 036°40'0 0.0
2017-Nov-17 21:00N 45°20' E 036°40'1 1.7
2017-Nov-17 20:31N 45°21' E 036°40'1 1.0
2017-Nov-17 19:07N 45°22' E 036°38'1 6.2
2017-Nov-17 19:00N 45°22' E 036°39'2 3.4
2017-Nov-17 18:30N 45°20' E 036°40'0 0.0
2017-Nov-17 18:00N 45°20' E 036°40'1 1.7
2017-Nov-17 17:29N 45°21' E 036°40'1 1.6
2017-Nov-17 16:43N 45°22' E 036°38'1 3.9
2017-Nov-17 16:30N 45°22' E 036°39'0 0.2
2017-Nov-17 16:00N 45°22' E 036°39'0 0.0
2017-Nov-17 15:30N 45°22' E 036°39'0 0.0
2017-Nov-17 15:00N 45°22' E 036°39'0 0.0
2017-Nov-17 14:30N 45°22' E 036°39'0 0.0
2017-Nov-17 14:00N 45°22' E 036°39'0 0.0
2017-Nov-17 13:29N 45°22' E 036°39'0 0.0
2017-Nov-17 13:00N 45°22' E 036°39'0 0.0
2017-Nov-17 12:30N 45°22' E 036°39'0 0.0
2017-Nov-17 12:00N 45°22' E 036°39'0 0.0
2017-Nov-17 11:30N 45°22' E 036°39'0 0.0
2017-Nov-17 10:59N 45°22' E 036°39'0 0.0
2017-Nov-17 10:30N 45°22' E 036°39'0 0.0
2017-Nov-17 10:00N 45°22' E 036°39'0 0.1
2017-Nov-17 09:30N 45°22' E 036°39'1 0.4
2017-Nov-17 08:14N 45°22' E 036°39'0 1.8
2017-Nov-17 07:59N 45°22' E 036°39'1 1.3
2017-Nov-17 07:30N 45°21' E 036°39'1 2.5
2017-Nov-17 07:00N 45°20' E 036°40'0 0.0
2017-Nov-17 06:30N 45°20' E 036°40'0 0.0
2017-Nov-17 06:00N 45°20' E 036°40'0 0.8
2017-Nov-17 05:30N 45°21' E 036°40'2 0.8
2017-Nov-17 03:19N 45°22' E 036°38'2 6.2
2017-Nov-17 02:59N 45°20' E 036°40'0 0.0
2017-Nov-17 02:30N 45°20' E 036°40'0 0.0
2017-Nov-17 02:00N 45°20' E 036°40'0 0.0
2017-Nov-17 01:30N 45°20' E 036°40'0 0.0
2017-Nov-17 00:59N 45°20' E 036°40'1 2.0
2017-Nov-17 00:30N 45°21' E 036°39'0 0.1
2017-Nov-17 00:00N 45°21' E 036°39'1 0.7
2017-Nov-16 22:29N 45°22' E 036°38'2 4.4
2017-Nov-16 22:00N 45°20' E 036°40'0 0.0
2017-Nov-16 21:30N 45°20' E 036°40'0 0.0
2017-Nov-16 21:00N 45°20' E 036°40'1 2.3
2017-Nov-16 20:29N 45°21' E 036°39'1 1.0
2017-Nov-16 20:00N 45°22' E 036°39'1 0.5
2017-Nov-16 18:34N 45°22' E 036°38'0 7.0
2017-Nov-16 18:30N 45°22' E 036°39'0 0.8
2017-Nov-16 18:00N 45°22' E 036°39'2 3.4
2017-Nov-16 17:31N 45°20' E 036°40'0 0.0
2017-Nov-16 17:00N 45°20' E 036°40'0 0.9
2017-Nov-16 16:29N 45°21' E 036°40'1 1.6
2017-Nov-16 16:00N 45°21' E 036°39'1 0.7
2017-Nov-16 14:27N 45°22' E 036°38'1 1.6
2017-Nov-16 13:59N 45°22' E 036°39'2 3.3
2017-Nov-16 13:29N 45°20' E 036°40'0 0.0
2017-Nov-16 13:00N 45°20' E 036°40'0 1.0
2017-Nov-16 12:30N 45°21' E 036°40'0 0.9
2017-Nov-16 12:00N 45°21' E 036°39'1 0.6
2017-Nov-16 10:13N 45°22' E 036°38'0 2.1
2017-Nov-16 10:00N 45°22' E 036°39'0 0.4
2017-Nov-16 09:30N 45°22' E 036°39'2 3.4
2017-Nov-16 09:00N 45°20' E 036°40'0 0.0
2017-Nov-16 08:30N 45°20' E 036°40'0 0.0
2017-Nov-16 08:00N 45°20' E 036°40'0 0.0
2017-Nov-16 07:30N 45°20' E 036°40'2 0.7
2017-Nov-16 04:21N 45°22' E 036°38'2 6.0
2017-Nov-16 04:00N 45°20' E 036°40'0 0.0
2017-Nov-16 03:30N 45°20' E 036°40'0 0.0
2017-Nov-16 03:00N 45°20' E 036°40'0 0.0
2017-Nov-16 02:30N 45°20' E 036°40'0 0.0
2017-Nov-16 02:00N 45°20' E 036°40'0 0.0
2017-Nov-16 01:31N 45°20' E 036°40'2 1.3
2017-Nov-15 23:48N 45°22' E 036°38'2 6.8
2017-Nov-15 23:30N 45°20' E 036°40'0 0.3
2017-Nov-15 23:00N 45°20' E 036°40'0 0.0
2017-Nov-15 22:30N 45°20' E 036°40'2 1.3
2017-Nov-15 20:48N 45°22' E 036°38'2 7.2
2017-Nov-15 20:30N 45°20' E 036°40'0 0.2
2017-Nov-15 20:01N 45°20' E 036°40'0 0.0
2017-Nov-15 19:30N 45°20' E 036°40'2 1.3
2017-Nov-15 17:48N 45°22' E 036°38'2 6.9
2017-Nov-15 17:30N 45°20' E 036°40'0 0.2
2017-Nov-15 17:00N 45°20' E 036°40'0 0.0
2017-Nov-15 16:30N 45°20' E 036°40'2 1.3
2017-Nov-15 14:51N 45°22' E 036°38'2 6.4
2017-Nov-15 14:30N 45°20' E 036°40'0 0.0
2017-Nov-15 13:51N 45°20' E 036°40'0 0.0
2017-Nov-15 13:30N 45°20' E 036°40'2 0.7
2017-Nov-15 10:16N 45°22' E 036°38'2 6.8
2017-Nov-15 10:00N 45°21' E 036°40'0 0.7
2017-Nov-15 09:29N 45°20' E 036°40'0 0.0
2017-Nov-15 09:00N 45°20' E 036°40'0 0.0
2017-Nov-15 07:50N 45°20' E 036°40'0 0.0
2017-Nov-15 07:30N 45°20' E 036°40'2 0.6
2017-Nov-15 04:20N 45°22' E 036°38'2 6.2
2017-Nov-15 04:00N 45°20' E 036°40'0 0.0
2017-Nov-15 03:30N 45°20' E 036°40'0 0.0
2017-Nov-15 03:00N 45°20' E 036°40'0 0.0
2017-Nov-15 02:30N 45°20' E 036°40'0 0.0
2017-Nov-15 02:01N 45°20' E 036°40'0 0.0
2017-Nov-15 01:30N 45°20' E 036°40'2 1.0
2017-Nov-14 23:26N 45°22' E 036°38'2 4.8
2017-Nov-14 23:01N 45°20' E 036°40'0 0.0
2017-Nov-14 22:30N 45°20' E 036°40'0 0.0
2017-Nov-14 22:00N 45°20' E 036°40'2 1.3
2017-Nov-14 20:18N 45°22' E 036°38'2 7.2
2017-Nov-14 20:00N 45°20' E 036°40'0 0.1
2017-Nov-14 19:31N 45°20' E 036°40'0 0.0
2017-Nov-14 19:00N 45°20' E 036°40'2 1.3
2017-Nov-14 17:21N 45°22' E 036°38'2 5.9
2017-Nov-14 17:00N 45°20' E 036°40'0 0.0
2017-Nov-14 16:30N 45°20' E 036°40'0 0.2
2017-Nov-14 16:00N 45°20' E 036°40'2 1.3
2017-Nov-14 14:19N 45°22' E 036°38'2 6.9
2017-Nov-14 14:00N 45°20' E 036°40'0 0.1
2017-Nov-14 13:30N 45°20' E 036°40'0 0.0
2017-Nov-14 13:00N 45°20' E 036°40'0 0.0
2017-Nov-14 12:31N 45°20' E 036°40'0 0.0
2017-Nov-14 12:00N 45°20' E 036°40'0 0.0
2017-Nov-14 11:30N 45°20' E 036°40'2 0.7
2017-Nov-14 08:24N 45°22' E 036°38'2 5.2
2017-Nov-14 08:00N 45°20' E 036°40'0 0.0
2017-Nov-14 07:30N 45°20' E 036°40'0 0.0
2017-Nov-14 07:00N 45°20' E 036°40'0 0.0
2017-Nov-14 06:30N 45°20' E 036°40'0 0.0
2017-Nov-14 06:00N 45°20' E 036°40'0 0.0
2017-Nov-14 05:30N 45°20' E 036°40'2 0.6
2017-Nov-14 02:19N 45°22' E 036°38'2 6.4
2017-Nov-14 02:00N 45°20' E 036°40'0 0.0
2017-Nov-14 01:30N 45°20' E 036°40'0 0.0
2017-Nov-14 01:00N 45°20' E 036°40'0 0.0
2017-Nov-14 00:31N 45°20' E 036°40'2 1.2
2017-Nov-13 22:50N 45°22' E 036°38'2 5.9
2017-Nov-13 22:30N 45°20' E 036°40'0 0.0
2017-Nov-13 22:01N 45°20' E 036°40'  
Track history (hours):
 
Tides and Currents Weather Stations Pressure Air Temp Water Temp Dewpoint Dewpoint Depression Visibility Wind Speed Wind Dir Waves Ship Positions

Olympiada

Last reported at 2017-Nov-23 10:57 UTC. Time now 2017-Nov-23 11:15 UTC.
Position N 45°22' E 036°41'.

Length 93 m; draft 3.2 m.

Type: Dredging. MMSI: 273371120.

Date/timePositionNaut miles runAvg speedWind from/ knotsBaromVisibWave heightAir tempDewpointWater temp
2017-Nov-23 10:57N 45°22' E 036°41'0 0.0
2017-Nov-23 10:30N 45°22' E 036°41'0 0.0
2017-Nov-23 10:00N 45°22' E 036°41'0 0.0
2017-Nov-23 09:29N 45°22' E 036°41'0 0.0
2017-Nov-23 08:56N 45°22' E 036°41'0 0.0
2017-Nov-23 08:25N 45°22' E 036°41'0 0.1
2017-Nov-23 08:00N 45°22' E 036°41'0 0.0
2017-Nov-23 07:28N 45°22' E 036°41'0 0.1
2017-Nov-23 06:56N 45°22' E 036°41'0 0.1
2017-Nov-23 06:24N 45°22' E 036°41'0 0.9
2017-Nov-23 06:00N 45°22' E 036°41'2 2.2
2017-Nov-23 05:07N 45°22' E 036°38'1 6.0
2017-Nov-23 05:01N 45°22' E 036°39'0 0.2
2017-Nov-23 04:30N 45°22' E 036°39'2 3.4
2017-Nov-23 04:00N 45°20' E 036°40'0 0.0
2017-Nov-23 03:30N 45°20' E 036°40'0 0.0
2017-Nov-23 03:00N 45°20' E 036°40'0 0.0
2017-Nov-23 02:30N 45°20' E 036°40'1 1.8
2017-Nov-23 02:00N 45°21' E 036°40'1 1.3
2017-Nov-23 01:31N 45°22' E 036°39'1 0.3
2017-Nov-22 23:08N 45°22' E 036°38'0 2.4
2017-Nov-22 23:00N 45°22' E 036°39'2 3.5
2017-Nov-22 22:30N 45°20' E 036°40'0 0.0
2017-Nov-22 22:00N 45°20' E 036°40'1 1.9
2017-Nov-22 21:30N 45°21' E 036°39'1 0.9
2017-Nov-22 20:09N 45°22' E 036°38'1 5.4
2017-Nov-22 20:00N 45°22' E 036°39'2 3.1
2017-Nov-22 19:30N 45°20' E 036°40'  
2017-Nov-19 23:42N 45°22' E 036°38'0 1.6
2017-Nov-19 23:30N 45°21' E 036°38'0 0.3
2017-Nov-19 23:00N 45°21' E 036°39'0 0.3
2017-Nov-19 21:41N 45°22' E 036°38'1 2.7
2017-Nov-19 21:30N 45°21' E 036°39'1 2.9
2017-Nov-19 20:59N 45°20' E 036°40'0 0.0
2017-Nov-19 20:30N 45°20' E 036°40'1 1.9
2017-Nov-19 20:00N 45°21' E 036°39'1 0.9
2017-Nov-19 18:37N 45°22' E 036°38'0 2.8
2017-Nov-19 18:30N 45°22' E 036°38'2 3.5
2017-Nov-19 17:59N 45°20' E 036°40'0 0.0
2017-Nov-19 17:29N 45°20' E 036°40'1 2.6
2017-Nov-19 17:00N 45°21' E 036°39'1 0.5
2017-Nov-19 15:33N 45°22' E 036°38'0 3.9
2017-Nov-19 15:29N 45°22' E 036°39'2 3.7
2017-Nov-19 15:01N 45°20' E 036°40'0 0.0
2017-Nov-19 14:31N 45°20' E 036°40'1 2.1
2017-Nov-19 13:59N 45°21' E 036°39'1 0.2
2017-Nov-19 08:10N 45°22' E 036°38'0 2.6
2017-Nov-19 08:00N 45°22' E 036°39'0 0.5
2017-Nov-19 07:30N 45°21' E 036°39'2 3.0
2017-Nov-19 06:59N 45°20' E 036°40'0 0.0
2017-Nov-19 06:30N 45°20' E 036°40'0 0.0
2017-Nov-19 05:59N 45°20' E 036°40'0 0.0
2017-Nov-19 05:30N 45°20' E 036°40'1 2.8
2017-Nov-19 05:00N 45°22' E 036°39'0 0.4
2017-Nov-19 04:30N 45°22' E 036°39'1 0.3
2017-Nov-19 02:25N 45°22' E 036°38'2 4.9
2017-Nov-19 02:00N 45°20' E 036°40'0 0.0
2017-Nov-19 01:30N 45°20' E 036°40'0 0.0
2017-Nov-19 00:59N 45°20' E 036°40'0 0.0
2017-Nov-19 00:30N 45°20' E 036°40'0 0.0
2017-Nov-19 00:00N 45°20' E 036°40'0 0.0
2017-Nov-18 23:30N 45°20' E 036°40'2 1.5
2017-Nov-18 22:10N 45°22' E 036°38'1 4.9
2017-Nov-18 22:00N 45°21' E 036°39'1 2.5
2017-Nov-18 21:30N 45°20' E 036°40'0 0.0
2017-Nov-18 21:00N 45°20' E 036°40'0 0.0
2017-Nov-18 20:29N 45°20' E 036°40'2 1.4
2017-Nov-18 19:00N 45°22' E 036°38'2 4.3
2017-Nov-18 18:31N 45°20' E 036°40'0 0.0
2017-Nov-18 17:59N 45°20' E 036°40'0 0.0
2017-Nov-18 17:30N 45°20' E 036°40'2 1.2
2017-Nov-18 15:51N 45°22' E 036°38'2 5.6
2017-Nov-18 15:30N 45°20' E 036°40'0 0.0
2017-Nov-18 15:00N 45°20' E 036°40'0 0.0
2017-Nov-18 14:29N 45°20' E 036°40'0 0.0
2017-Nov-18 14:00N 45°20' E 036°40'0 0.0
2017-Nov-18 13:30N 45°20' E 036°40'0 0.0
2017-Nov-18 13:00N 45°20' E 036°40'0 0.0
2017-Nov-18 12:30N 45°20' E 036°40'0 0.0
2017-Nov-18 12:00N 45°20' E 036°40'0 0.0
2017-Nov-18 11:30N 45°20' E 036°40'2 0.9
2017-Nov-18 09:16N 45°22' E 036°38'2 6.7
2017-Nov-18 08:59N 45°20' E 036°40'0 0.2
2017-Nov-18 08:30N 45°20' E 036°40'0 0.0
2017-Nov-18 08:00N 45°20' E 036°40'0 0.0
2017-Nov-18 07:30N 45°20' E 036°40'0 0.0
2017-Nov-18 07:00N 45°20' E 036°40'0 0.0
2017-Nov-18 06:30N 45°20' E 036°40'0 0.0
2017-Nov-18 06:00N 45°20' E 036°40'0 0.0
2017-Nov-18 05:30N 45°20' E 036°40'2 3.1
2017-Nov-18 05:00N 45°21' E 036°38'0 0.0
2017-Nov-18 04:30N 45°21' E 036°38'0 0.2
2017-Nov-18 02:04N 45°22' E 036°38'0 4.8
2017-Nov-18 02:00N 45°22' E 036°39'0 0.0
2017-Nov-18 01:30N 45°22' E 036°39'2 3.5
2017-Nov-18 01:00N 45°20' E 036°40'0 0.0
2017-Nov-18 00:30N 45°20' E 036°40'0 0.0
2017-Nov-18 00:00N 45°20' E 036°40'1 2.1
2017-Nov-17 23:30N 45°21' E 036°40'1 0.8
2017-Nov-17 22:03N 45°22' E 036°38'0 6.4
2017-Nov-17 21:59N 45°22' E 036°39'2 3.8
2017-Nov-17 21:30N 45°20' E 036°40'0 0.0
2017-Nov-17 21:00N 45°20' E 036°40'1 1.7
2017-Nov-17 20:31N 45°21' E 036°40'1 1.0
2017-Nov-17 19:07N 45°22' E 036°38'1 6.2
2017-Nov-17 19:00N 45°22' E 036°39'2 3.4
2017-Nov-17 18:30N 45°20' E 036°40'0 0.0
2017-Nov-17 18:00N 45°20' E 036°40'1 1.7
2017-Nov-17 17:29N 45°21' E 036°40'1 1.6
2017-Nov-17 16:43N 45°22' E 036°38'1 3.9
2017-Nov-17 16:30N 45°22' E 036°39'0 0.2
2017-Nov-17 16:00N 45°22' E 036°39'0 0.0
2017-Nov-17 15:30N 45°22' E 036°39'0 0.0
2017-Nov-17 15:00N 45°22' E 036°39'0 0.0
2017-Nov-17 14:30N 45°22' E 036°39'0 0.0
2017-Nov-17 14:00N 45°22' E 036°39'0 0.0
2017-Nov-17 13:29N 45°22' E 036°39'0 0.0
2017-Nov-17 13:00N 45°22' E 036°39'0 0.0
2017-Nov-17 12:30N 45°22' E 036°39'0 0.0
2017-Nov-17 12:00N 45°22' E 036°39'0 0.0
2017-Nov-17 11:30N 45°22' E 036°39'0 0.0
2017-Nov-17 10:59N 45°22' E 036°39'0 0.0
2017-Nov-17 10:30N 45°22' E 036°39'0 0.0
2017-Nov-17 10:00N 45°22' E 036°39'0 0.1
2017-Nov-17 09:30N 45°22' E 036°39'1 0.4
2017-Nov-17 08:14N 45°22' E 036°39'0 1.8
2017-Nov-17 07:59N 45°22' E 036°39'1 1.3
2017-Nov-17 07:30N 45°21' E 036°39'1 2.5
2017-Nov-17 07:00N 45°20' E 036°40'0 0.0
2017-Nov-17 06:30N 45°20' E 036°40'0 0.0
2017-Nov-17 06:00N 45°20' E 036°40'0 0.8
2017-Nov-17 05:30N 45°21' E 036°40'2 0.8
2017-Nov-17 03:19N 45°22' E 036°38'2 6.2
2017-Nov-17 02:59N 45°20' E 036°40'0 0.0
2017-Nov-17 02:30N 45°20' E 036°40'0 0.0
2017-Nov-17 02:00N 45°20' E 036°40'0 0.0
2017-Nov-17 01:30N 45°20' E 036°40'0 0.0
2017-Nov-17 00:59N 45°20' E 036°40'1 2.0
2017-Nov-17 00:30N 45°21' E 036°39'0 0.1
2017-Nov-17 00:00N 45°21' E 036°39'1 0.7
2017-Nov-16 22:29N 45°22' E 036°38'2 4.4
2017-Nov-16 22:00N 45°20' E 036°40'0 0.0
2017-Nov-16 21:30N 45°20' E 036°40'0 0.0
2017-Nov-16 21:00N 45°20' E 036°40'1 2.3
2017-Nov-16 20:29N 45°21' E 036°39'1 1.0
2017-Nov-16 20:00N 45°22' E 036°39'1 0.5
2017-Nov-16 18:34N 45°22' E 036°38'0 7.0
2017-Nov-16 18:30N 45°22' E 036°39'0 0.8
2017-Nov-16 18:00N 45°22' E 036°39'2 3.4
2017-Nov-16 17:31N 45°20' E 036°40'0 0.0
2017-Nov-16 17:00N 45°20' E 036°40'0 0.9
2017-Nov-16 16:29N 45°21' E 036°40'1 1.6
2017-Nov-16 16:00N 45°21' E 036°39'1 0.7
2017-Nov-16 14:27N 45°22' E 036°38'1 1.6
2017-Nov-16 13:59N 45°22' E 036°39'2 3.3
2017-Nov-16 13:29N 45°20' E 036°40'0 0.0
2017-Nov-16 13:00N 45°20' E 036°40'0 1.0
2017-Nov-16 12:30N 45°21' E 036°40'0 0.9
2017-Nov-16 12:00N 45°21' E 036°39'1 0.6
2017-Nov-16 10:13N 45°22' E 036°38'0 2.1
2017-Nov-16 10:00N 45°22' E 036°39'0 0.4
2017-Nov-16 09:30N 45°22' E 036°39'2 3.4
2017-Nov-16 09:00N 45°20' E 036°40'0 0.0
2017-Nov-16 08:30N 45°20' E 036°40'0 0.0
2017-Nov-16 08:00N 45°20' E 036°40'0 0.0
2017-Nov-16 07:30N 45°20' E 036°40'2 0.7
2017-Nov-16 04:21N 45°22' E 036°38'2 6.0
2017-Nov-16 04:00N 45°20' E 036°40'0 0.0
2017-Nov-16 03:30N 45°20' E 036°40'0 0.0
2017-Nov-16 03:00N 45°20' E 036°40'0 0.0
2017-Nov-16 02:30N 45°20' E 036°40'0 0.0
2017-Nov-16 02:00N 45°20' E 036°40'0 0.0
2017-Nov-16 01:31N 45°20' E 036°40'2 1.3
2017-Nov-15 23:48N 45°22' E 036°38'2 6.8
2017-Nov-15 23:30N 45°20' E 036°40'0 0.3
2017-Nov-15 23:00N 45°20' E 036°40'0 0.0
2017-Nov-15 22:30N 45°20' E 036°40'2 1.3
2017-Nov-15 20:48N 45°22' E 036°38'2 7.2
2017-Nov-15 20:30N 45°20' E 036°40'0 0.2
2017-Nov-15 20:01N 45°20' E 036°40'0 0.0
2017-Nov-15 19:30N 45°20' E 036°40'2 1.3
2017-Nov-15 17:48N 45°22' E 036°38'2 6.9
2017-Nov-15 17:30N 45°20' E 036°40'0 0.2
2017-Nov-15 17:00N 45°20' E 036°40'0 0.0
2017-Nov-15 16:30N 45°20' E 036°40'2 1.3
2017-Nov-15 14:51N 45°22' E 036°38'2 6.4
2017-Nov-15 14:30N 45°20' E 036°40'0 0.0
2017-Nov-15 13:51N 45°20' E 036°40'0 0.0
2017-Nov-15 13:30N 45°20' E 036°40'2 0.7
2017-Nov-15 10:16N 45°22' E 036°38'2 6.8
2017-Nov-15 10:00N 45°21' E 036°40'0 0.7
2017-Nov-15 09:29N 45°20' E 036°40'0 0.0
2017-Nov-15 09:00N 45°20' E 036°40'0 0.0
2017-Nov-15 07:50N 45°20' E 036°40'0 0.0
2017-Nov-15 07:30N 45°20' E 036°40'2 0.6
2017-Nov-15 04:20N 45°22' E 036°38'2 6.2
2017-Nov-15 04:00N 45°20' E 036°40'0 0.0
2017-Nov-15 03:30N 45°20' E 036°40'0 0.0
2017-Nov-15 03:00N 45°20' E 036°40'0 0.0
2017-Nov-15 02:30N 45°20' E 036°40'0 0.0
2017-Nov-15 02:01N 45°20' E 036°40'0 0.0
2017-Nov-15 01:30N 45°20' E 036°40'2 1.0
2017-Nov-14 23:26N 45°22' E 036°38'2 4.8
2017-Nov-14 23:01N 45°20' E 036°40'0 0.0
2017-Nov-14 22:30N 45°20' E 036°40'0 0.0
2017-Nov-14 22:00N 45°20' E 036°40'2 1.3
2017-Nov-14 20:18N 45°22' E 036°38'2 7.2
2017-Nov-14 20:00N 45°20' E 036°40'0 0.1
2017-Nov-14 19:31N 45°20' E 036°40'0 0.0
2017-Nov-14 19:00N 45°20' E 036°40'2 1.3
2017-Nov-14 17:21N 45°22' E 036°38'2 5.9
2017-Nov-14 17:00N 45°20' E 036°40'0 0.0
2017-Nov-14 16:30N 45°20' E 036°40'0 0.2
2017-Nov-14 16:00N 45°20' E 036°40'2 1.3
2017-Nov-14 14:19N 45°22' E 036°38'2 6.9
2017-Nov-14 14:00N 45°20' E 036°40'0 0.1
2017-Nov-14 13:30N 45°20' E 036°40'0 0.0
2017-Nov-14 13:00N 45°20' E 036°40'0 0.0
2017-Nov-14 12:31N 45°20' E 036°40'0 0.0
2017-Nov-14 12:00N 45°20' E 036°40'0 0.0
2017-Nov-14 11:30N 45°20' E 036°40'2 0.7
2017-Nov-14 08:24N 45°22' E 036°38'2 5.2
2017-Nov-14 08:00N 45°20' E 036°40'0 0.0
2017-Nov-14 07:30N 45°20' E 036°40'0 0.0
2017-Nov-14 07:00N 45°20' E 036°40'0 0.0
2017-Nov-14 06:30N 45°20' E 036°40'0 0.0
2017-Nov-14 06:00N 45°20' E 036°40'0 0.0
2017-Nov-14 05:30N 45°20' E 036°40'2 0.6
2017-Nov-14 02:19N 45°22' E 036°38'2 6.4
2017-Nov-14 02:00N 45°20' E 036°40'0 0.0
2017-Nov-14 01:30N 45°20' E 036°40'0 0.0
2017-Nov-14 01:00N 45°20' E 036°40'0 0.0
2017-Nov-14 00:31N 45°20' E 036°40'2 1.2
2017-Nov-13 22:50N 45°22' E 036°38'2 5.9
2017-Nov-13 22:30N 45°20' E 036°40'0 0.0
2017-Nov-13 22:01N 45°20' E 036°40'  

Dump ship's entire track history